createdAt,value
2023-03-29T00:04:55.297Z,17.30
2023-03-29T00:15:08.300Z,17.00
2023-03-29T00:25:21.324Z,16.10
2023-03-29T00:35:35.317Z,16.80
2023-03-29T00:45:55.370Z,21.30
2023-03-29T00:56:22.503Z,20.80
2023-03-29T01:06:37.482Z,21.50
2023-03-29T01:16:50.409Z,24.80
2023-03-29T01:27:36.355Z,22.30
2023-03-29T01:38:00.333Z,21.60
2023-03-29T01:48:23.381Z,21.80
2023-03-29T01:58:41.358Z,76.40
2023-03-29T02:08:55.374Z,61.40
2023-03-29T02:19:08.356Z,51.90
2023-03-29T02:29:22.373Z,52.00
2023-03-29T02:39:36.358Z,49.40
2023-03-29T02:49:49.386Z,47.60
2023-03-29T03:00:03.418Z,44.10
2023-03-29T03:10:18.398Z,43.90
2023-03-29T03:20:31.380Z,46.50
2023-03-29T03:30:44.424Z,45.10
2023-03-29T03:41:02.627Z,46.00
2023-03-29T03:51:15.438Z,46.20
2023-03-29T04:01:28.401Z,45.60
2023-03-29T04:11:41.454Z,45.20
2023-03-29T04:21:57.395Z,45.90
2023-03-29T04:32:10.449Z,48.10
2023-03-29T04:42:23.451Z,46.50
2023-03-29T04:52:40.462Z,47.20
2023-03-29T05:02:54.494Z,45.50
2023-03-29T05:13:07.458Z,38.50
2023-03-29T05:23:20.455Z,42.50
2023-03-29T05:33:33.473Z,26.50
2023-03-29T05:43:53.487Z,18.40
2023-03-29T05:54:06.497Z,18.70
2023-03-29T06:04:26.616Z,17.80
2023-03-29T06:14:46.514Z,19.90
2023-03-29T06:24:59.503Z,15.40
2023-03-29T06:35:12.569Z,15.80
2023-03-29T06:45:33.489Z,15.80
2023-03-29T06:55:46.530Z,15.50
2023-03-29T07:06:00.554Z,17.90
2023-03-29T07:16:14.646Z,17.70
2023-03-29T07:26:30.231Z,18.70
2023-03-29T07:36:44.543Z,16.40
2023-03-29T07:47:04.561Z,12.80
2023-03-29T07:57:17.586Z,9.30
2023-03-29T08:07:29.550Z,8.75
2023-03-29T08:17:43.692Z,8.90
2023-03-29T08:27:56.569Z,8.20
2023-03-29T08:38:09.597Z,9.00
2023-03-29T08:48:44.600Z,11.30
2023-03-29T08:58:57.572Z,9.00
2023-03-29T09:09:11.660Z,7.80
2023-03-29T09:19:30.586Z,6.90
2023-03-29T09:30:02.657Z,6.70
2023-03-29T09:40:24.598Z,5.50
2023-03-29T09:50:51.681Z,6.20
2023-03-29T10:01:10.638Z,5.80
2023-03-29T10:11:31.686Z,5.60
2023-03-29T10:21:45.672Z,5.10
2023-03-29T10:31:58.710Z,5.90
2023-03-29T10:42:19.657Z,4.80
2023-03-29T10:52:33.687Z,5.50
2023-03-29T11:03:20.980Z,5.10
2023-03-29T11:14:24.742Z,4.50
2023-03-29T11:24:43.702Z,4.90
2023-03-29T11:35:13.716Z,5.00
2023-03-29T11:45:34.716Z,4.80
2023-03-29T11:55:47.730Z,5.00
2023-03-29T12:06:23.713Z,5.00
2023-03-29T12:16:42.790Z,5.00
2023-03-29T12:27:33.728Z,5.30
2023-03-29T12:38:08.802Z,4.70
2023-03-29T12:48:35.363Z,5.40
2023-03-29T12:58:47.787Z,4.75
2023-03-29T13:09:09.730Z,5.10
2023-03-29T13:19:31.819Z,4.50
2023-03-29T13:30:13.795Z,4.80
2023-03-29T13:40:39.821Z,5.30
2023-03-29T13:51:04.811Z,4.40
2023-03-29T14:01:37.827Z,4.80
2023-03-29T14:11:53.808Z,5.50
2023-03-29T14:22:10.856Z,4.60
2023-03-29T14:32:25.844Z,4.60
2023-03-29T14:42:38.862Z,5.30
2023-03-29T14:52:59.811Z,5.10
2023-03-29T15:03:21.947Z,5.90
2023-03-29T15:13:35.843Z,5.80
2023-03-29T15:23:55.880Z,5.60
2023-03-29T15:34:18.872Z,6.00
2023-03-29T15:44:36.910Z,7.20
2023-03-29T15:54:49.892Z,7.50
2023-03-29T16:05:02.891Z,5.10
2023-03-29T16:15:26.915Z,6.00
2023-03-29T16:25:39.979Z,9.20
2023-03-29T16:35:53.134Z,7.80
2023-03-29T16:46:13.974Z,10.80
2023-03-29T16:56:26.888Z,8.00
2023-03-29T17:06:40.913Z,9.30
2023-03-29T17:16:53.939Z,12.80
2023-03-29T17:27:06.956Z,13.10
2023-03-29T17:37:19.953Z,16.70
2023-03-29T17:47:40.029Z,11.80
2023-03-29T17:57:52.966Z,14.70
2023-03-29T18:08:05.983Z,11.10
2023-03-29T18:18:18.977Z,12.90
2023-03-29T18:28:32.985Z,11.90
2023-03-29T18:38:47.994Z,12.70
2023-03-29T18:49:08.033Z,13.00
2023-03-29T18:59:21.018Z,14.70
2023-03-29T19:09:35.032Z,19.70
2023-03-29T19:19:47.008Z,24.40
2023-03-29T19:30:00.049Z,17.60
2023-03-29T19:40:15.010Z,44.00
2023-03-29T19:50:28.040Z,20.60
2023-03-29T20:00:41.044Z,18.30
2023-03-29T20:10:54.050Z,20.80
2023-03-29T20:21:08.048Z,22.10
2023-03-29T20:31:21.107Z,20.30
2023-03-29T20:41:34.056Z,19.20
2023-03-29T20:51:48.081Z,20.70
2023-03-29T21:02:01.152Z,21.80
2023-03-29T21:12:14.121Z,19.30
2023-03-29T21:22:27.099Z,18.90
2023-03-29T21:32:40.170Z,17.30
2023-03-29T21:42:53.080Z,16.40
2023-03-29T21:53:06.123Z,17.80
2023-03-29T22:03:19.157Z,21.30
2023-03-29T22:13:34.140Z,19.50
2023-03-29T22:23:51.116Z,17.60
2023-03-29T22:34:04.141Z,15.70
2023-03-29T22:44:17.135Z,15.80
2023-03-29T22:54:30.156Z,15.20
2023-03-29T23:04:44.230Z,10.20
2023-03-29T23:15:01.164Z,9.10
2023-03-29T23:25:15.182Z,8.40
2023-03-29T23:35:28.222Z,8.10
2023-03-29T23:45:48.176Z,8.20
2023-03-29T23:56:04.241Z,8.10
